createdAt,value
2019-06-27T00:09:15.287Z,69.00
2019-06-27T00:19:15.987Z,68.14
2019-06-27T00:29:16.825Z,68.53
2019-06-27T00:39:17.824Z,68.32
2019-06-27T00:49:18.498Z,68.38
2019-06-27T00:59:19.943Z,68.00
2019-06-27T01:09:20.591Z,68.79
2019-06-27T01:19:21.656Z,68.41
2019-06-27T01:29:22.783Z,69.30
2019-06-27T01:39:23.652Z,69.00
2019-06-27T01:49:24.439Z,68.31
2019-06-27T01:59:25.280Z,69.04
2019-06-27T02:09:26.181Z,69.40
2019-06-27T02:19:27.221Z,68.92
2019-06-27T02:29:27.966Z,69.78
2019-06-27T02:39:28.883Z,68.96
2019-06-27T02:49:29.791Z,69.57
2019-06-27T02:59:30.519Z,69.29
2019-06-27T03:09:31.582Z,69.57
2019-06-27T03:19:32.352Z,70.40
2019-06-27T03:29:50.878Z,72.35
2019-06-27T03:39:52.067Z,73.50
2019-06-27T03:49:53.290Z,73.13
2019-06-27T03:59:54.226Z,70.33
2019-06-27T04:09:55.383Z,69.90
2019-06-27T04:19:58.820Z,68.65
2019-06-27T04:29:59.751Z,65.08
2019-06-27T04:40:00.790Z,63.12
2019-06-27T04:50:01.874Z,60.55
2019-06-27T05:00:03.995Z,60.94
2019-06-27T05:10:05.391Z,61.05
2019-06-27T05:20:06.315Z,65.80
2019-06-27T05:30:10.075Z,67.72
2019-06-27T05:40:10.522Z,65.68
2019-06-27T05:50:11.700Z,63.50
2019-06-27T06:00:27.329Z,65.02
2019-06-27T06:10:19.260Z,68.18
2019-06-27T06:20:20.577Z,66.41
2019-06-27T06:30:21.460Z,66.92
2019-06-27T06:40:22.524Z,60.46
2019-06-27T06:50:23.656Z,60.18
2019-06-27T07:00:24.759Z,61.12
2019-06-27T07:10:25.739Z,59.22
2019-06-27T07:20:26.814Z,56.07
2019-06-27T07:30:27.683Z,54.73
2019-06-27T07:40:28.758Z,55.17
2019-06-27T07:50:29.722Z,49.75
2019-06-27T08:00:30.718Z,52.27
2019-06-27T08:10:31.469Z,45.42
2019-06-27T08:20:32.425Z,49.20
2019-06-27T08:30:33.394Z,43.89
2019-06-27T08:40:34.303Z,47.36
2019-06-27T08:50:34.987Z,49.44
2019-06-27T09:00:36.223Z,51.86
2019-06-27T09:10:37.148Z,45.84
2019-06-27T09:20:38.049Z,47.85
2019-06-27T09:30:39.112Z,47.33
2019-06-27T09:40:40.031Z,45.24
2019-06-27T09:50:41.021Z,41.53
2019-06-27T10:00:41.918Z,43.51
2019-06-27T10:10:43.019Z,42.76
2019-06-27T10:20:43.710Z,42.80
2019-06-27T10:30:44.781Z,41.47
2019-06-27T10:40:45.687Z,40.15
2019-06-27T10:50:46.886Z,36.58
2019-06-27T11:00:47.968Z,38.59
2019-06-27T11:10:49.176Z,37.72
2019-06-27T11:20:50.381Z,38.04
2019-06-27T11:30:51.253Z,35.44
2019-06-27T11:40:52.120Z,41.13
2019-06-27T11:50:53.142Z,39.97
2019-06-27T12:00:54.105Z,37.04
2019-06-27T12:10:55.043Z,37.17
2019-06-27T12:20:55.979Z,35.20
2019-06-27T12:30:57.030Z,37.90
2019-06-27T12:40:58.087Z,36.57
2019-06-27T13:01:43.085Z,33.24
2019-06-27T13:11:44.010Z,31.32
2019-06-27T13:21:45.345Z,33.48
2019-06-27T13:31:49.210Z,28.79
2019-06-27T13:41:50.107Z,26.20
2019-06-27T14:02:34.557Z,24.60
2019-06-27T14:12:38.155Z,24.60
2019-06-27T14:22:38.927Z,24.23
2019-06-27T14:32:39.554Z,23.44
2019-06-27T14:42:40.259Z,23.08
2019-06-27T14:52:40.942Z,23.35
2019-06-27T15:02:41.592Z,22.86
2019-06-27T15:12:56.400Z,23.26
2019-06-27T15:22:46.283Z,26.29
2019-06-27T15:32:47.444Z,25.25
2019-06-27T15:42:49.180Z,26.94
2019-06-27T15:52:49.868Z,24.79
2019-06-27T16:02:53.409Z,25.20
2019-06-27T16:12:55.027Z,25.20
2019-06-27T16:23:05.414Z,25.35
2019-06-27T16:33:06.238Z,24.65
2019-06-27T16:43:09.988Z,24.23
2019-06-27T16:53:10.818Z,23.99
2019-06-27T17:03:11.590Z,25.57
2019-06-27T17:13:12.479Z,26.08
2019-06-27T17:23:13.212Z,23.89
2019-06-27T17:33:13.882Z,23.47
2019-06-27T17:43:14.528Z,25.01
2019-06-27T17:53:15.189Z,25.36
2019-06-27T18:03:15.878Z,26.57
2019-06-27T18:13:16.501Z,27.67
2019-06-27T18:23:17.249Z,28.95
2019-06-27T18:33:17.910Z,29.35
2019-06-27T18:43:18.623Z,30.70
2019-06-27T18:53:19.547Z,33.41
2019-06-27T19:03:20.445Z,33.54
2019-06-27T19:13:21.453Z,33.33
2019-06-27T19:23:22.098Z,35.92
2019-06-27T19:33:22.989Z,36.09
2019-06-27T19:43:28.029Z,37.30
2019-06-27T19:53:27.074Z,38.45
2019-06-27T20:03:27.749Z,41.11
2019-06-27T20:13:28.633Z,43.30
2019-06-27T20:23:30.279Z,42.78
2019-06-27T20:33:31.029Z,41.92
2019-06-27T20:43:32.248Z,43.32
2019-06-27T20:53:33.440Z,44.76
2019-06-27T21:03:37.420Z,48.58
2019-06-27T21:13:38.088Z,50.47
2019-06-27T21:23:38.991Z,51.85
2019-06-27T21:33:39.739Z,53.36
2019-06-27T21:43:40.400Z,54.80
2019-06-27T21:53:41.266Z,55.67
2019-06-27T22:03:42.062Z,58.96
2019-06-27T22:13:42.704Z,62.29
2019-06-27T22:23:43.613Z,62.67
2019-06-27T22:33:45.339Z,62.85
2019-06-27T22:43:46.220Z,62.72
2019-06-27T22:53:47.090Z,63.93
2019-06-27T23:03:47.742Z,62.86
2019-06-27T23:13:48.399Z,65.21
2019-06-27T23:23:49.502Z,67.83
2019-06-27T23:33:53.171Z,66.21
2019-06-27T23:43:53.899Z,64.71
2019-06-27T23:53:57.710Z,65.84
